createdAt,value
2018-06-02T00:00:17.070Z,78.18
2018-06-02T00:00:49.643Z,77.90
2018-06-02T00:01:22.204Z,74.97
2018-06-02T00:01:55.422Z,74.12
2018-06-02T00:02:27.997Z,78.47
2018-06-02T00:03:00.565Z,82.28
2018-06-02T00:03:33.150Z,79.75
2018-06-02T00:04:05.734Z,76.72
2018-06-02T00:04:38.261Z,77.22
2018-06-02T00:05:10.808Z,76.03
2018-06-02T00:05:43.329Z,76.37
2018-06-02T00:06:15.873Z,79.75
2018-06-02T00:06:48.437Z,80.93
2018-06-02T00:07:20.983Z,71.45
2018-06-02T00:07:53.596Z,77.60
2018-06-02T00:08:26.150Z,74.13
2018-06-02T00:08:58.712Z,74.15
2018-06-02T00:09:31.258Z,72.93
2018-06-02T00:10:03.812Z,72.85
2018-06-02T00:10:36.376Z,77.20
2018-06-02T00:11:08.956Z,72.43
2018-06-02T00:11:41.507Z,77.03
2018-06-02T00:12:14.031Z,74.07
2018-06-02T00:12:46.615Z,78.87
2018-06-02T00:13:19.168Z,77.62
2018-06-02T00:13:51.721Z,70.55
2018-06-02T00:14:24.291Z,70.90
2018-06-02T00:14:56.865Z,71.82
2018-06-02T00:15:29.429Z,76.30
2018-06-02T00:16:02.023Z,75.00
2018-06-02T00:16:35.303Z,68.80
2018-06-02T00:17:07.851Z,72.93
2018-06-02T00:17:40.401Z,67.12
2018-06-02T00:18:12.955Z,65.25
2018-06-02T00:18:45.505Z,64.32
2018-06-02T00:19:18.038Z,53.60
2018-06-02T00:19:50.602Z,54.13
2018-06-02T00:20:23.197Z,50.55
2018-06-02T00:20:55.871Z,52.08
2018-06-02T00:21:28.395Z,52.15
2018-06-02T00:22:00.921Z,46.80
2018-06-02T00:22:33.452Z,43.53
2018-06-02T00:23:06.016Z,44.78
2018-06-02T00:23:38.562Z,40.72
2018-06-02T00:24:11.105Z,40.35
2018-06-02T00:24:43.651Z,40.83
2018-06-02T00:25:19.046Z,39.08
2018-06-02T00:25:51.643Z,36.17
2018-06-02T00:26:24.208Z,40.63
2018-06-02T00:26:56.767Z,37.25
2018-06-02T00:27:29.328Z,36.40
2018-06-02T00:28:01.912Z,34.08
2018-06-02T00:28:34.439Z,34.70
2018-06-02T00:29:06.971Z,30.83
2018-06-02T00:29:39.525Z,30.62
2018-06-02T00:30:12.070Z,31.48
2018-06-02T00:30:44.644Z,29.08
2018-06-02T00:31:17.196Z,29.08
2018-06-02T00:31:49.784Z,28.50
2018-06-02T00:32:22.615Z,30.83
2018-06-02T00:32:55.148Z,31.00
2018-06-02T00:33:27.676Z,26.60
2018-06-02T00:34:00.216Z,27.87
2018-06-02T00:34:32.756Z,31.47
2018-06-02T00:35:06.077Z,30.12
2018-06-02T00:35:38.656Z,28.40
2018-06-02T00:36:11.228Z,30.95
2018-06-02T00:36:43.821Z,31.50
2018-06-02T00:37:16.413Z,28.55
2018-06-02T00:37:48.968Z,33.03
2018-06-02T00:38:21.526Z,27.92
2018-06-02T00:38:54.080Z,29.45
2018-06-02T00:39:26.611Z,29.37
2018-06-02T00:39:59.211Z,27.48
2018-06-02T00:40:31.835Z,29.58
2018-06-02T00:41:04.378Z,28.15
2018-06-02T00:41:36.947Z,28.10
2018-06-02T00:42:09.557Z,31.00
2018-06-02T00:42:42.884Z,28.60
2018-06-02T00:43:15.478Z,29.92
2018-06-02T00:43:48.102Z,26.87
2018-06-02T00:44:20.640Z,30.88
2018-06-02T00:44:53.197Z,29.30
2018-06-02T00:45:25.746Z,27.60
2018-06-02T00:45:58.313Z,27.67
2018-06-02T00:46:30.872Z,29.40
2018-06-02T00:47:03.423Z,27.80
2018-06-02T00:47:35.998Z,28.00
2018-06-02T00:48:08.559Z,29.08
2018-06-02T00:48:41.113Z,26.62
2018-06-02T00:49:13.683Z,28.87
2018-06-02T00:49:46.258Z,29.85
2018-06-02T00:50:19.159Z,29.10
2018-06-02T00:50:51.719Z,28.42
2018-06-02T00:51:24.274Z,29.05
2018-06-02T00:51:56.856Z,29.10
2018-06-02T00:52:29.402Z,28.27
2018-06-02T00:53:01.964Z,29.35
2018-06-02T00:53:34.511Z,29.95
2018-06-02T00:54:07.050Z,30.27
2018-06-02T00:54:51.493Z,29.60
2018-06-02T00:55:24.035Z,26.65
2018-06-02T00:55:56.579Z,29.87
2018-06-02T00:56:29.151Z,27.53
2018-06-02T00:57:01.779Z,28.90
2018-06-02T00:57:34.340Z,26.95
2018-06-02T00:58:06.904Z,29.40
2018-06-02T00:58:39.443Z,29.85
2018-06-02T00:59:12.010Z,27.33
2018-06-02T00:59:44.975Z,29.35
2018-06-02T01:00:17.539Z,29.55
2018-06-02T01:00:50.112Z,30.10
2018-06-02T01:01:22.664Z,28.60
2018-06-02T01:01:55.860Z,30.45
2018-06-02T01:02:28.422Z,30.60
2018-06-02T01:03:00.996Z,27.90
2018-06-02T01:03:33.534Z,32.35
2018-06-02T01:04:06.112Z,31.75
2018-06-02T01:04:38.741Z,31.10
2018-06-02T01:05:11.316Z,26.33
2018-06-02T01:05:43.853Z,30.80
2018-06-02T01:06:16.380Z,29.02
2018-06-02T01:06:48.939Z,28.42
2018-06-02T01:07:21.465Z,29.42
2018-06-02T01:07:54.016Z,29.35
2018-06-02T01:08:26.580Z,30.67
2018-06-02T01:08:59.116Z,33.25
2018-06-02T01:09:31.668Z,27.58
2018-06-02T01:10:04.235Z,28.98
2018-06-02T01:10:36.806Z,28.50
2018-06-02T01:11:09.361Z,32.65
2018-06-02T01:11:47.455Z,30.23
2018-06-02T01:12:19.986Z,29.63
2018-06-02T01:12:52.564Z,29.25
2018-06-02T01:13:25.135Z,30.92
2018-06-02T01:13:57.673Z,29.92
2018-06-02T01:14:30.228Z,29.63
2018-06-02T01:15:02.991Z,29.75
2018-06-02T01:15:35.553Z,32.20
2018-06-02T01:16:08.134Z,32.58
2018-06-02T01:16:40.708Z,29.92
2018-06-02T01:17:13.542Z,29.48
2018-06-02T01:17:46.068Z,28.65
2018-06-02T01:18:19.268Z,30.12
2018-06-02T01:18:51.842Z,31.10
2018-06-02T01:19:24.398Z,29.87
2018-06-02T01:19:56.926Z,31.92
2018-06-02T01:20:29.537Z,30.83
2018-06-02T01:21:02.108Z,32.80
2018-06-02T01:21:34.645Z,34.58
2018-06-02T01:22:07.198Z,34.25
2018-06-02T01:22:39.754Z,36.85
2018-06-02T01:23:12.284Z,34.97
2018-06-02T01:23:44.848Z,34.95
2018-06-02T01:24:17.397Z,37.42
2018-06-02T01:24:49.966Z,32.83
2018-06-02T01:25:22.494Z,34.97
2018-06-02T01:25:55.039Z,34.42
2018-06-02T01:26:27.584Z,34.90
2018-06-02T01:27:00.127Z,37.38
2018-06-02T01:27:32.685Z,34.95
2018-06-02T01:28:05.556Z,34.60
2018-06-02T01:28:38.091Z,36.65
2018-06-02T01:29:10.640Z,35.00
2018-06-02T01:29:43.177Z,39.35
2018-06-02T01:30:15.751Z,36.38
2018-06-02T01:30:49.059Z,36.50
2018-06-02T01:31:21.603Z,38.00
2018-06-02T01:31:54.161Z,39.28
2018-06-02T01:32:26.723Z,40.20
2018-06-02T01:32:59.272Z,37.53
2018-06-02T01:33:31.819Z,36.38
2018-06-02T01:34:04.356Z,39.28
2018-06-02T01:34:36.911Z,35.27
2018-06-02T01:35:09.465Z,37.65
2018-06-02T01:35:42.041Z,43.15
2018-06-02T01:36:14.585Z,37.75
2018-06-02T01:36:47.131Z,35.53
2018-06-02T01:37:20.466Z,36.45
2018-06-02T01:37:52.988Z,36.88
2018-06-02T01:38:25.579Z,40.23
2018-06-02T01:38:58.108Z,37.63
2018-06-02T01:39:31.401Z,38.85
2018-06-02T01:40:03.981Z,38.63
2018-06-02T01:40:36.521Z,38.50
2018-06-02T01:41:09.085Z,40.47
2018-06-02T01:41:41.637Z,39.40
2018-06-02T01:42:14.195Z,43.63
2018-06-02T01:42:46.745Z,39.85
2018-06-02T01:43:19.302Z,41.40
2018-06-02T01:43:51.863Z,38.75
2018-06-02T01:44:24.425Z,43.07
2018-06-02T01:44:56.959Z,42.45
2018-06-02T01:45:29.509Z,42.10
2018-06-02T01:46:02.031Z,42.40
2018-06-02T01:46:36.660Z,42.53
2018-06-02T01:47:09.201Z,41.63
2018-06-02T01:47:41.756Z,39.75
2018-06-02T01:48:14.331Z,40.65
2018-06-02T01:48:46.871Z,41.60
2018-06-02T01:49:19.402Z,39.95
2018-06-02T01:49:51.984Z,43.35
2018-06-02T01:50:24.553Z,41.80
2018-06-02T01:50:57.121Z,45.00
2018-06-02T01:51:29.675Z,45.55
2018-06-02T01:52:02.227Z,43.65
2018-06-02T01:52:34.788Z,43.00
2018-06-02T01:53:07.383Z,43.72
2018-06-02T01:53:40.248Z,48.63
2018-06-02T01:54:12.857Z,44.40
2018-06-02T01:54:45.436Z,44.85
2018-06-02T01:55:17.993Z,48.00
2018-06-02T01:55:50.605Z,49.53
2018-06-02T01:56:23.161Z,48.72
2018-06-02T01:56:55.740Z,49.60
2018-06-02T01:57:28.283Z,50.45
2018-06-02T01:58:00.835Z,48.03
2018-06-02T01:58:33.428Z,51.30
2018-06-02T01:59:05.980Z,48.22
2018-06-02T01:59:38.531Z,51.15
2018-06-02T02:00:11.090Z,48.05
2018-06-02T02:00:43.650Z,48.70
2018-06-02T02:01:16.189Z,51.10
2018-06-02T02:01:48.729Z,49.22
2018-06-02T02:02:21.259Z,49.78
2018-06-02T02:02:53.811Z,49.67
2018-06-02T02:03:26.375Z,52.83
2018-06-02T02:03:58.945Z,51.75
2018-06-02T02:04:31.514Z,52.77
2018-06-02T02:05:04.079Z,48.85
2018-06-02T02:05:36.670Z,52.13
2018-06-02T02:06:09.212Z,55.08
2018-06-02T02:06:41.747Z,49.67
2018-06-02T02:07:14.294Z,53.17
2018-06-02T02:07:46.853Z,54.88
2018-06-02T02:08:19.403Z,54.60
2018-06-02T02:08:52.004Z,49.83
2018-06-02T02:09:24.567Z,55.08
2018-06-02T02:09:57.147Z,53.85
2018-06-02T02:10:29.677Z,53.90
2018-06-02T02:11:02.256Z,60.55
2018-06-02T02:11:34.844Z,52.53
2018-06-02T02:12:07.394Z,54.38
2018-06-02T02:12:39.954Z,53.60
2018-06-02T02:13:12.623Z,57.03
2018-06-02T02:13:45.180Z,55.20
2018-06-02T02:14:17.928Z,55.92
2018-06-02T02:14:50.483Z,55.47
2018-06-02T02:15:23.037Z,54.60
2018-06-02T02:15:55.600Z,59.97
2018-06-02T02:16:28.186Z,56.50
2018-06-02T02:17:00.808Z,59.25
2018-06-02T02:17:33.383Z,54.55
2018-06-02T02:18:05.952Z,60.03
2018-06-02T02:18:38.509Z,59.35
2018-06-02T02:19:11.048Z,56.90
2018-06-02T02:19:43.625Z,57.38
2018-06-02T02:20:16.216Z,58.58
2018-06-02T02:20:48.780Z,55.97
2018-06-02T02:21:21.379Z,57.30
2018-06-02T02:21:53.940Z,52.47
2018-06-02T02:22:26.463Z,56.58
2018-06-02T02:22:59.034Z,56.72
2018-06-02T02:23:31.547Z,55.03
2018-06-02T02:24:04.091Z,56.37
2018-06-02T02:24:36.639Z,57.63
2018-06-02T02:25:09.190Z,55.97
2018-06-02T02:25:41.728Z,52.92
2018-06-02T02:26:14.292Z,55.08
2018-06-02T02:26:46.867Z,58.25
2018-06-02T02:27:19.398Z,55.38
2018-06-02T02:27:51.976Z,61.05
2018-06-02T02:28:25.280Z,60.90
2018-06-02T02:28:57.829Z,56.58
2018-06-02T02:29:30.359Z,56.58
2018-06-02T02:30:02.889Z,59.40
2018-06-02T02:30:35.428Z,60.27
2018-06-02T02:31:07.960Z,61.37
2018-06-02T02:31:40.496Z,57.85
2018-06-02T02:32:13.088Z,57.08
2018-06-02T02:32:45.636Z,58.78
2018-06-02T02:33:18.175Z,59.25
2018-06-02T02:33:50.697Z,57.80
2018-06-02T02:34:24.040Z,55.88
2018-06-02T02:34:56.591Z,58.58
2018-06-02T02:35:29.160Z,61.80
2018-06-02T02:36:01.716Z,60.90
2018-06-02T02:36:34.265Z,59.20
2018-06-02T02:37:06.797Z,60.03
2018-06-02T02:37:39.388Z,63.03
2018-06-02T02:38:11.915Z,58.70
2018-06-02T02:38:44.511Z,58.53
2018-06-02T02:39:17.114Z,58.45
2018-06-02T02:39:49.664Z,60.00
2018-06-02T02:40:22.223Z,61.63
2018-06-02T02:40:54.802Z,63.85
2018-06-02T02:41:27.349Z,62.62
2018-06-02T02:41:59.916Z,58.40
2018-06-02T02:42:32.489Z,61.05
2018-06-02T02:43:05.050Z,60.75
2018-06-02T02:43:37.606Z,65.05
2018-06-02T02:44:10.191Z,60.12
2018-06-02T02:44:42.767Z,63.00
2018-06-02T02:45:15.293Z,63.17
2018-06-02T02:45:47.826Z,67.47
2018-06-02T02:46:20.348Z,61.70
2018-06-02T02:46:52.914Z,64.97
2018-06-02T02:47:25.467Z,63.35
2018-06-02T02:47:57.991Z,68.40
2018-06-02T02:48:31.296Z,65.23
2018-06-02T02:49:03.842Z,65.43
2018-06-02T02:49:36.389Z,69.65
2018-06-02T02:50:08.947Z,66.20
2018-06-02T02:50:41.511Z,69.32
2018-06-02T02:51:14.081Z,69.18
2018-06-02T02:51:46.648Z,67.57
2018-06-02T02:52:19.167Z,66.75
2018-06-02T02:52:51.711Z,66.20
2018-06-02T02:53:24.238Z,65.65
2018-06-02T02:53:56.803Z,65.97
2018-06-02T02:54:30.125Z,65.97
2018-06-02T02:55:02.664Z,63.30
2018-06-02T02:55:35.200Z,69.07
2018-06-02T02:56:07.796Z,68.72
2018-06-02T02:56:40.328Z,69.82
2018-06-02T02:57:12.919Z,61.20
2018-06-02T02:57:45.492Z,69.47
2018-06-02T02:58:18.020Z,66.50
2018-06-02T02:58:50.587Z,67.50
2018-06-02T02:59:23.180Z,67.35
2018-06-02T02:59:55.708Z,66.95
2018-06-02T03:00:28.273Z,65.03
2018-06-02T03:01:00.851Z,67.20
2018-06-02T03:01:33.400Z,68.25
2018-06-02T03:02:06.471Z,65.20
2018-06-02T03:02:39.794Z,70.87
2018-06-02T03:03:12.368Z,66.50
2018-06-02T03:03:45.023Z,68.32
2018-06-02T03:04:17.602Z,67.57
2018-06-02T03:04:50.183Z,68.35
2018-06-02T03:05:22.718Z,69.72
2018-06-02T03:05:55.279Z,69.37
2018-06-02T03:06:27.835Z,65.40
2018-06-02T03:07:00.371Z,70.70
2018-06-02T03:07:32.935Z,65.30
2018-06-02T03:08:05.456Z,71.05
2018-06-02T03:08:37.994Z,72.23
2018-06-02T03:09:10.536Z,70.93
2018-06-02T03:09:43.072Z,71.07
2018-06-02T03:10:15.648Z,68.40
2018-06-02T03:10:48.219Z,72.47
2018-06-02T03:11:20.779Z,72.53
2018-06-02T03:11:53.339Z,67.18
2018-06-02T03:12:25.876Z,73.30
2018-06-02T03:12:58.406Z,67.53
2018-06-02T03:13:30.963Z,69.18
2018-06-02T03:14:03.480Z,67.20
2018-06-02T03:14:36.045Z,67.80
2018-06-02T03:15:08.603Z,75.12
2018-06-02T03:15:41.147Z,76.87
2018-06-02T03:16:13.729Z,72.75
2018-06-02T03:16:46.297Z,81.50
2018-06-02T03:17:18.849Z,76.85
2018-06-02T03:17:51.392Z,73.93
2018-06-02T03:18:23.943Z,69.03
2018-06-02T03:18:56.512Z,71.25
2018-06-02T03:19:29.095Z,74.53
2018-06-02T03:20:01.657Z,74.37
2018-06-02T03:20:35.029Z,70.30
2018-06-02T03:21:07.591Z,70.03
2018-06-02T03:21:40.138Z,68.05
2018-06-02T03:22:12.747Z,74.53
2018-06-02T03:22:45.327Z,67.93
2018-06-02T03:23:17.879Z,73.32
2018-06-02T03:23:50.403Z,72.95
2018-06-02T03:24:22.939Z,72.60
2018-06-02T03:24:55.508Z,64.82
2018-06-02T03:25:28.037Z,76.03
2018-06-02T03:26:01.481Z,71.60
2018-06-02T03:26:34.076Z,69.93
2018-06-02T03:27:06.644Z,77.07
2018-06-02T03:27:39.954Z,77.57
2018-06-02T03:28:12.540Z,72.75
2018-06-02T03:28:45.114Z,77.12
2018-06-02T03:29:17.666Z,76.40
2018-06-02T03:29:50.213Z,70.35
2018-06-02T03:30:22.777Z,72.25
2018-06-02T03:30:55.367Z,71.95
2018-06-02T03:31:27.943Z,74.70
2018-06-02T03:32:00.497Z,69.93
2018-06-02T03:32:33.064Z,79.03
2018-06-02T03:33:05.620Z,73.90
2018-06-02T03:33:38.156Z,71.90
2018-06-02T03:34:10.711Z,74.07
2018-06-02T03:34:43.256Z,75.78
2018-06-02T03:35:15.795Z,73.45
2018-06-02T03:35:48.365Z,70.80
2018-06-02T03:36:20.961Z,76.75
2018-06-02T03:36:53.540Z,73.22
2018-06-02T03:37:26.110Z,76.95
2018-06-02T03:38:00.004Z,76.25
2018-06-02T03:38:32.573Z,72.93
2018-06-02T03:39:05.125Z,77.72
2018-06-02T03:39:37.653Z,80.25
2018-06-02T03:40:10.184Z,88.18
2018-06-02T03:40:42.750Z,76.07
2018-06-02T03:41:15.466Z,78.15
2018-06-02T03:41:48.048Z,83.95
2018-06-02T03:42:20.624Z,81.93
2018-06-02T03:42:53.192Z,90.47
2018-06-02T03:43:25.771Z,92.10
2018-06-02T03:43:58.301Z,83.37
2018-06-02T03:44:30.835Z,121.23
2018-06-02T03:45:04.160Z,134.50
2018-06-02T03:45:36.688Z,114.65
2018-06-02T03:46:11.631Z,132.12
2018-06-02T03:46:44.176Z,126.68
2018-06-02T03:47:17.489Z,140.73
2018-06-02T03:47:50.017Z,116.43
2018-06-02T03:48:22.657Z,103.00
2018-06-02T03:48:55.193Z,87.40
2018-06-02T03:49:27.750Z,79.18
2018-06-02T03:50:00.347Z,83.37
2018-06-02T03:50:32.870Z,83.60
2018-06-02T03:51:05.415Z,77.45
2018-06-02T03:51:38.180Z,80.75
2018-06-02T03:52:10.899Z,76.35
2018-06-02T03:52:43.450Z,77.00
2018-06-02T03:53:15.987Z,78.82
2018-06-02T03:53:49.226Z,83.72
2018-06-02T03:54:21.783Z,81.18
2018-06-02T03:54:54.336Z,74.40
2018-06-02T03:55:26.888Z,74.75
2018-06-02T03:56:01.641Z,76.87
2018-06-02T03:56:34.975Z,81.40
2018-06-02T03:57:07.935Z,75.05
2018-06-02T03:57:40.494Z,77.43
2018-06-02T03:58:13.088Z,75.35
2018-06-02T03:58:45.642Z,75.95
2018-06-02T03:59:18.230Z,79.45
2018-06-02T03:59:50.765Z,79.95
2018-06-02T04:00:23.317Z,82.03
2018-06-02T04:00:55.875Z,83.47
2018-06-02T04:01:28.448Z,127.03
2018-06-02T04:02:01.022Z,156.52
2018-06-02T04:02:33.610Z,139.83
2018-06-02T04:03:06.727Z,81.37
2018-06-02T04:03:39.323Z,78.05
2018-06-02T04:04:11.901Z,79.03
2018-06-02T04:04:44.515Z,79.95
2018-06-02T04:05:17.073Z,79.22
2018-06-02T04:05:49.625Z,79.30
2018-06-02T04:06:22.966Z,80.75
2018-06-02T04:06:55.512Z,80.68
2018-06-02T04:07:28.833Z,80.20
2018-06-02T04:08:01.381Z,84.13
2018-06-02T04:08:33.933Z,84.47
2018-06-02T04:09:06.497Z,82.55
2018-06-02T04:09:39.027Z,84.13
2018-06-02T04:10:11.572Z,83.05
2018-06-02T04:10:44.134Z,85.12
2018-06-02T04:11:16.699Z,87.25
2018-06-02T04:11:49.261Z,83.18
2018-06-02T04:12:21.828Z,87.03
2018-06-02T04:12:54.343Z,82.97
2018-06-02T04:13:26.902Z,84.20
2018-06-02T04:13:59.448Z,84.68
2018-06-02T04:14:31.971Z,81.33
2018-06-02T04:15:05.333Z,85.97
2018-06-02T04:15:37.873Z,83.70
2018-06-02T04:16:10.420Z,83.15
2018-06-02T04:16:42.959Z,90.90
2018-06-02T04:17:15.506Z,88.07
2018-06-02T04:17:48.095Z,83.10
2018-06-02T04:18:20.686Z,87.18
2018-06-02T04:18:53.308Z,87.47
2018-06-02T04:19:26.631Z,88.53
2018-06-02T04:19:59.209Z,90.38
2018-06-02T04:20:31.769Z,81.80
2018-06-02T04:21:04.334Z,87.62
2018-06-02T04:21:36.883Z,89.07
2018-06-02T04:22:09.432Z,87.37
2018-06-02T04:22:42.010Z,88.70
2018-06-02T04:23:14.578Z,88.75
2018-06-02T04:23:47.103Z,89.05
2018-06-02T04:24:20.445Z,85.32
2018-06-02T04:24:52.965Z,87.05
2018-06-02T04:25:25.501Z,86.60
2018-06-02T04:25:58.050Z,92.35
2018-06-02T04:26:30.584Z,88.97
2018-06-02T04:27:03.169Z,89.90
2018-06-02T04:27:35.710Z,90.87
2018-06-02T04:28:08.236Z,90.93
2018-06-02T04:28:40.773Z,91.07
2018-06-02T04:29:13.299Z,85.65
2018-06-02T04:29:45.846Z,86.25
2018-06-02T04:30:19.242Z,89.10
2018-06-02T04:30:51.785Z,88.60
2018-06-02T04:31:24.320Z,90.72
2018-06-02T04:31:56.864Z,88.37
2018-06-02T04:32:29.390Z,95.27
2018-06-02T04:33:01.953Z,94.57
2018-06-02T04:33:34.512Z,93.20
2018-06-02T04:34:07.048Z,98.25
2018-06-02T04:34:39.579Z,93.07
2018-06-02T04:35:12.951Z,95.03
2018-06-02T04:35:45.524Z,92.65
2018-06-02T04:36:18.064Z,92.82
2018-06-02T04:36:50.621Z,95.12
2018-06-02T04:37:23.210Z,92.15
2018-06-02T04:37:55.739Z,92.37
2018-06-02T04:38:28.297Z,93.60
2018-06-02T04:39:00.840Z,84.47
2018-06-02T04:39:33.371Z,91.35
2018-06-02T04:40:05.912Z,88.12
2018-06-02T04:40:38.477Z,92.05
2018-06-02T04:41:11.001Z,89.97
2018-06-02T04:41:43.552Z,90.55
2018-06-02T04:42:16.124Z,93.28
2018-06-02T04:42:48.677Z,88.60
2018-06-02T04:43:21.221Z,96.45
2018-06-02T04:43:53.768Z,92.18
2018-06-02T04:44:26.313Z,92.27
2018-06-02T04:44:58.868Z,92.15
2018-06-02T04:45:31.435Z,94.65
2018-06-02T04:46:03.976Z,98.85
2018-06-02T04:46:36.524Z,96.87
2018-06-02T04:47:09.081Z,95.62
2018-06-02T04:47:41.618Z,93.80
2018-06-02T04:48:14.193Z,95.85
2018-06-02T04:48:47.515Z,92.20
2018-06-02T04:49:20.066Z,97.45
2018-06-02T04:49:52.741Z,101.05
2018-06-02T04:50:25.292Z,93.00
2018-06-02T04:50:57.829Z,95.70
2018-06-02T04:51:30.388Z,97.82
2018-06-02T04:52:02.949Z,96.85
2018-06-02T04:52:35.478Z,96.50
2018-06-02T04:53:08.032Z,98.57
2018-06-02T04:53:40.593Z,96.15
2018-06-02T04:54:13.150Z,95.95
2018-06-02T04:54:45.710Z,92.25
2018-06-02T04:55:18.270Z,96.90
2018-06-02T04:55:50.825Z,105.18
2018-06-02T04:56:23.405Z,95.20
2018-06-02T04:56:56.007Z,104.15
2018-06-02T04:57:28.572Z,98.85
2018-06-02T04:58:01.149Z,101.62
2018-06-02T04:58:33.701Z,97.33
2018-06-02T04:59:06.251Z,100.12
2018-06-02T04:59:38.817Z,104.32
2018-06-02T05:00:11.375Z,99.72
2018-06-02T05:00:43.909Z,104.00
2018-06-02T05:01:16.481Z,106.70
2018-06-02T05:01:49.037Z,98.25
2018-06-02T05:02:21.568Z,97.65
2018-06-02T05:02:54.165Z,102.10
2018-06-02T05:03:26.726Z,100.65
2018-06-02T05:03:59.262Z,100.20
2018-06-02T05:04:31.853Z,95.57
2018-06-02T05:05:04.424Z,100.43
2018-06-02T05:05:36.963Z,94.70
2018-06-02T05:06:09.528Z,105.90
2018-06-02T05:06:42.095Z,94.97
2018-06-02T05:07:14.660Z,99.22
2018-06-02T05:07:47.218Z,96.32
2018-06-02T05:08:19.790Z,99.22
2018-06-02T05:08:52.364Z,101.07
2018-06-02T05:09:24.915Z,96.55
2018-06-02T05:09:57.463Z,98.40
2018-06-02T05:10:30.012Z,106.00
2018-06-02T05:11:02.606Z,100.53
2018-06-02T05:11:35.173Z,94.37
2018-06-02T05:12:07.728Z,101.38
2018-06-02T05:12:40.278Z,98.43
2018-06-02T05:13:12.813Z,97.50
2018-06-02T05:13:45.408Z,101.30
2018-06-02T05:14:17.955Z,104.47
2018-06-02T05:14:50.486Z,101.97
2018-06-02T05:15:23.647Z,105.97
2018-06-02T05:15:56.170Z,107.85
2018-06-02T05:16:29.492Z,103.70
2018-06-02T05:17:02.051Z,105.57
2018-06-02T05:17:34.613Z,110.43
2018-06-02T05:18:07.171Z,109.93
2018-06-02T05:18:39.743Z,111.47
2018-06-02T05:19:12.292Z,112.12
2018-06-02T05:19:44.849Z,116.97
2018-06-02T05:20:17.430Z,112.65
2018-06-02T05:20:49.993Z,107.35
2018-06-02T05:21:22.550Z,108.20
2018-06-02T05:21:55.099Z,115.12
2018-06-02T05:22:27.668Z,116.57
2018-06-02T05:23:00.227Z,119.28
2018-06-02T05:23:32.796Z,114.53
2018-06-02T05:24:05.352Z,117.43
2018-06-02T05:24:37.940Z,115.67
2018-06-02T05:25:10.462Z,108.87
2018-06-02T05:25:42.988Z,121.37
2018-06-02T05:26:15.510Z,115.82
2018-06-02T05:26:48.068Z,118.85
2018-06-02T05:27:20.611Z,115.90
2018-06-02T05:27:53.176Z,124.28
2018-06-02T05:28:26.506Z,116.23
2018-06-02T05:28:59.047Z,116.10
2018-06-02T05:29:31.609Z,113.12
2018-06-02T05:30:04.170Z,114.32
2018-06-02T05:30:36.730Z,118.03
2018-06-02T05:31:09.273Z,122.80
2018-06-02T05:31:41.815Z,116.93
2018-06-02T05:32:14.378Z,116.28
2018-06-02T05:32:46.943Z,120.45
2018-06-02T05:33:19.508Z,124.62
2018-06-02T05:33:52.071Z,119.82
2018-06-02T05:34:24.705Z,117.65
2018-06-02T05:34:57.285Z,123.35
2018-06-02T05:35:29.868Z,118.13
2018-06-02T05:36:02.434Z,123.07
2018-06-02T05:36:35.030Z,124.97
2018-06-02T05:37:07.583Z,125.40
2018-06-02T05:37:40.137Z,122.72
2018-06-02T05:38:12.714Z,121.18
2018-06-02T05:38:45.945Z,119.43
2018-06-02T05:39:18.494Z,120.95
2018-06-02T05:39:51.038Z,131.25
2018-06-02T05:40:23.624Z,123.82
2018-06-02T05:40:56.184Z,121.70
2018-06-02T05:41:28.734Z,117.18
2018-06-02T05:42:01.309Z,123.57
2018-06-02T05:42:33.869Z,120.77
2018-06-02T05:43:06.426Z,119.03
2018-06-02T05:43:38.954Z,120.43
2018-06-02T05:44:11.523Z,121.57
2018-06-02T05:44:45.002Z,126.38
2018-06-02T05:45:17.585Z,121.85
2018-06-02T05:45:50.194Z,119.28
2018-06-02T05:46:23.107Z,117.15
2018-06-02T05:46:56.449Z,124.57
2018-06-02T05:47:29.001Z,117.65
2018-06-02T05:48:01.557Z,125.32
2018-06-02T05:48:34.128Z,121.73
2018-06-02T05:49:06.665Z,114.07
2018-06-02T05:49:39.192Z,119.00
2018-06-02T05:50:11.752Z,123.93
2018-06-02T05:50:44.309Z,128.87
2018-06-02T05:51:16.880Z,123.50
2018-06-02T05:51:49.487Z,117.05
2018-06-02T05:52:22.064Z,116.80
2018-06-02T05:52:54.632Z,115.62
2018-06-02T05:53:27.201Z,120.18
2018-06-02T05:53:59.739Z,117.93
2018-06-02T05:54:32.299Z,113.67
2018-06-02T05:55:04.823Z,121.22
2018-06-02T05:55:37.404Z,120.35
2018-06-02T05:56:10.002Z,108.78
2018-06-02T05:56:42.538Z,107.30
2018-06-02T05:57:15.096Z,115.60
2018-06-02T05:57:48.425Z,113.72
2018-06-02T05:58:20.994Z,113.78
2018-06-02T05:58:53.557Z,116.97
2018-06-02T05:59:26.111Z,117.30
2018-06-02T05:59:58.749Z,117.07
2018-06-02T06:00:31.216Z,117.90
2018-06-02T06:01:03.759Z,117.30
2018-06-02T06:01:36.315Z,121.55
2018-06-02T06:02:08.875Z,114.18
2018-06-02T06:02:41.435Z,117.95
2018-06-02T06:03:14.005Z,116.00
2018-06-02T06:03:46.539Z,114.03
2018-06-02T06:04:19.167Z,115.54
2018-06-02T06:04:51.709Z,114.88
2018-06-02T06:05:24.263Z,106.60
2018-06-02T06:05:56.827Z,112.88
2018-06-02T06:06:29.401Z,110.07
2018-06-02T06:07:01.967Z,109.63
2018-06-02T06:07:34.530Z,114.28
2018-06-02T06:08:07.071Z,114.78
2018-06-02T06:08:39.676Z,116.35
2018-06-02T06:09:12.266Z,121.30
2018-06-02T06:09:44.792Z,110.40
2018-06-02T06:10:17.384Z,121.40
2018-06-02T06:10:49.924Z,118.90
2018-06-02T06:11:22.467Z,122.22
2018-06-02T06:11:55.032Z,124.50
2018-06-02T06:12:27.588Z,113.47
2018-06-02T06:13:00.135Z,110.55
2018-06-02T06:13:32.709Z,114.10
2018-06-02T06:14:05.264Z,106.78
2018-06-02T06:14:37.798Z,113.27
2018-06-02T06:15:10.327Z,109.12
2018-06-02T06:15:42.901Z,106.05
2018-06-02T06:16:15.460Z,105.45
2018-06-02T06:16:48.024Z,107.63
2018-06-02T06:17:20.587Z,102.25
2018-06-02T06:17:53.129Z,107.68
2018-06-02T06:18:25.721Z,100.63
2018-06-02T06:18:58.306Z,100.72
2018-06-02T06:19:30.880Z,100.22
2018-06-02T06:20:03.469Z,91.28
2018-06-02T06:20:36.106Z,75.43
2018-06-02T06:21:08.668Z,77.55
2018-06-02T06:21:41.224Z,75.10
2018-06-02T06:22:13.757Z,69.15
2018-06-02T06:22:46.334Z,57.70
2018-06-02T06:23:18.872Z,49.70
2018-06-02T06:23:51.427Z,48.92
2018-06-02T06:24:23.977Z,47.25
2018-06-02T06:24:56.516Z,51.70
2018-06-02T06:25:29.895Z,44.88
2018-06-02T06:26:02.462Z,46.17
2018-06-02T06:26:34.992Z,45.40
2018-06-02T06:27:07.531Z,43.30
2018-06-02T06:27:40.853Z,44.55
2018-06-02T06:28:13.390Z,40.22
2018-06-02T06:28:45.955Z,41.05
2018-06-02T06:29:19.011Z,37.90
2018-06-02T06:29:52.340Z,40.55
2018-06-02T06:30:24.919Z,40.73
2018-06-02T06:30:57.476Z,40.70
2018-06-02T06:31:30.062Z,39.20
2018-06-02T06:32:02.630Z,40.35
2018-06-02T06:32:35.177Z,41.63
2018-06-02T06:33:07.716Z,32.97
2018-06-02T06:33:40.254Z,37.95
2018-06-02T06:34:12.800Z,34.47
2018-06-02T06:34:45.960Z,35.78
2018-06-02T06:35:18.518Z,36.83
2018-06-02T06:35:51.089Z,36.10
2018-06-02T06:36:23.688Z,35.63
2018-06-02T06:36:56.271Z,36.65
2018-06-02T06:37:28.841Z,39.58
2018-06-02T06:38:01.388Z,32.20
2018-06-02T06:38:33.983Z,32.63
2018-06-02T06:39:06.592Z,31.15
2018-06-02T06:39:39.165Z,28.33
2018-06-02T06:40:11.729Z,29.85
2018-06-02T06:40:44.332Z,29.87
2018-06-02T06:41:16.929Z,31.75
2018-06-02T06:41:49.510Z,33.80
2018-06-02T06:42:22.826Z,28.52
2018-06-02T06:42:55.370Z,28.08
2018-06-02T06:43:27.928Z,29.15
2018-06-02T06:44:00.492Z,32.28
2018-06-02T06:44:33.087Z,28.47
2018-06-02T06:45:05.622Z,29.12
2018-06-02T06:45:38.191Z,30.23
2018-06-02T06:46:10.748Z,29.58
2018-06-02T06:46:43.267Z,28.25
2018-06-02T06:47:15.873Z,27.48
2018-06-02T06:47:48.412Z,26.52
2018-06-02T06:48:20.966Z,26.45
2018-06-02T06:48:53.498Z,25.62
2018-06-02T06:49:26.078Z,26.25
2018-06-02T06:49:59.385Z,28.92
2018-06-02T06:50:32.425Z,25.27
2018-06-02T06:51:04.978Z,22.20
2018-06-02T06:51:37.521Z,26.08
2018-06-02T06:52:10.063Z,22.25
2018-06-02T06:52:43.428Z,23.45
2018-06-02T06:53:15.986Z,25.37
2018-06-02T06:53:48.533Z,24.17
2018-06-02T06:54:21.078Z,23.27
2018-06-02T06:54:53.601Z,21.27
2018-06-02T06:55:26.233Z,20.83
2018-06-02T06:55:58.738Z,21.95
2018-06-02T06:56:31.295Z,20.40
2018-06-02T06:57:03.839Z,19.98
2018-06-02T06:57:36.392Z,22.92